createdAt,value
2022-11-22T00:01:15.657Z,38.70
2022-11-22T00:03:48.649Z,34.60
2022-11-22T00:06:20.610Z,41.40
2022-11-22T00:08:52.375Z,34.83
2022-11-22T00:11:24.316Z,33.10
2022-11-22T00:13:56.203Z,35.17
2022-11-22T00:16:28.184Z,36.67
2022-11-22T00:18:59.918Z,31.63
2022-11-22T00:21:32.191Z,38.60
2022-11-22T00:24:04.229Z,31.23
2022-11-22T00:26:35.949Z,31.30
2022-11-22T00:29:07.653Z,38.17
2022-11-22T00:31:38.928Z,37.60
2022-11-22T00:34:10.187Z,41.10
2022-11-22T00:36:41.529Z,38.17
2022-11-22T00:39:12.793Z,44.57
2022-11-22T00:41:44.060Z,41.57
2022-11-22T00:44:15.312Z,37.47
2022-11-22T00:46:46.597Z,38.77
2022-11-22T00:49:17.964Z,39.63
2022-11-22T00:51:49.209Z,40.83
2022-11-22T00:54:20.467Z,42.00
2022-11-22T00:56:51.819Z,39.73
2022-11-22T00:59:23.084Z,40.63
2022-11-22T01:01:54.355Z,29.53
2022-11-22T01:04:25.755Z,35.57
2022-11-22T01:06:57.013Z,41.37
2022-11-22T01:09:28.577Z,40.73
2022-11-22T01:12:00.091Z,36.37
2022-11-22T01:14:31.572Z,37.93
2022-11-22T01:17:03.071Z,38.50
2022-11-22T01:19:34.432Z,37.50
2022-11-22T01:22:05.771Z,40.40
2022-11-22T01:24:37.066Z,35.13
2022-11-22T01:27:08.344Z,35.53
2022-11-22T01:29:39.632Z,41.23
2022-11-22T01:32:10.903Z,36.17
2022-11-22T01:34:42.169Z,36.57
2022-11-22T01:37:13.444Z,39.13
2022-11-22T01:39:44.718Z,39.53
2022-11-22T01:42:16.201Z,31.30
2022-11-22T01:44:48.282Z,38.00
2022-11-22T01:47:25.244Z,34.77
2022-11-22T01:50:07.006Z,33.53
2022-11-22T01:52:38.295Z,35.80
2022-11-22T01:55:12.808Z,35.13
2022-11-22T01:57:45.344Z,32.20
2022-11-22T02:00:17.671Z,34.97
2022-11-22T02:02:53.108Z,33.80
2022-11-22T02:05:28.973Z,41.63
2022-11-22T02:08:17.596Z,36.92
2022-11-22T02:10:51.768Z,36.80
2022-11-22T02:13:24.361Z,36.20
2022-11-22T02:15:56.541Z,37.67
2022-11-22T02:18:27.948Z,34.03
2022-11-22T02:20:59.573Z,34.43
2022-11-22T02:24:00.211Z,37.50
2022-11-22T02:26:32.249Z,35.17
2022-11-22T02:29:06.382Z,30.73
2022-11-22T02:31:45.991Z,31.37
2022-11-22T02:34:17.243Z,32.10
2022-11-22T02:36:51.314Z,34.17
2022-11-22T02:39:29.254Z,37.50
2022-11-22T02:42:01.598Z,32.80
2022-11-22T02:44:33.555Z,29.80
2022-11-22T02:47:04.872Z,31.80
2022-11-22T02:49:36.143Z,30.33
2022-11-22T02:52:07.396Z,28.33
2022-11-22T02:54:38.628Z,31.90
2022-11-22T02:57:09.909Z,33.20
2022-11-22T02:59:41.155Z,30.53
2022-11-22T03:02:12.413Z,27.60
2022-11-22T03:04:43.669Z,24.80
2022-11-22T03:07:14.976Z,31.20
2022-11-22T03:09:46.370Z,30.77
2022-11-22T03:12:17.631Z,30.70
2022-11-22T03:14:48.925Z,31.47
2022-11-22T03:17:20.213Z,28.77
2022-11-22T03:19:51.476Z,25.80
2022-11-22T03:22:22.787Z,30.87
2022-11-22T03:24:54.030Z,31.30
2022-11-22T03:27:25.288Z,33.30
2022-11-22T03:29:56.569Z,32.00
2022-11-22T03:32:27.904Z,29.73
2022-11-22T03:34:59.168Z,30.73
2022-11-22T03:37:30.452Z,29.60
2022-11-22T03:40:01.921Z,31.50
2022-11-22T03:42:33.241Z,31.23
2022-11-22T03:45:04.919Z,34.37
2022-11-22T03:47:36.168Z,26.90
2022-11-22T03:50:07.780Z,27.03
2022-11-22T03:52:39.043Z,31.40
2022-11-22T03:55:10.310Z,30.23
2022-11-22T03:57:41.577Z,30.03
2022-11-22T04:00:13.337Z,26.97
2022-11-22T04:02:44.635Z,28.67
2022-11-22T04:05:16.034Z,29.77
2022-11-22T04:07:47.521Z,32.53
2022-11-22T04:10:22.267Z,30.40
2022-11-22T04:13:00.079Z,29.87
2022-11-22T04:15:31.452Z,22.37
2022-11-22T04:18:02.943Z,25.63
2022-11-22T04:20:52.734Z,29.77
2022-11-22T04:23:30.702Z,30.30
2022-11-22T04:26:05.020Z,26.83
2022-11-22T04:29:07.476Z,27.17
2022-11-22T04:31:46.359Z,28.83
2022-11-22T04:34:17.633Z,31.57
2022-11-22T04:36:48.966Z,27.57
2022-11-22T04:39:20.303Z,29.80
2022-11-22T04:42:14.267Z,29.67
2022-11-22T04:44:45.966Z,27.70
2022-11-22T04:47:37.045Z,29.47
2022-11-22T04:50:28.732Z,29.17
2022-11-22T04:52:59.984Z,32.10
2022-11-22T04:55:31.333Z,30.47
2022-11-22T04:58:02.702Z,30.70
2022-11-22T05:00:34.373Z,31.73
2022-11-22T05:03:06.813Z,30.23
2022-11-22T05:05:40.146Z,29.33
2022-11-22T05:08:12.169Z,28.70
2022-11-22T05:10:59.240Z,26.07
2022-11-22T05:13:36.160Z,34.50
2022-11-22T05:16:10.011Z,28.20
2022-11-22T05:18:42.078Z,26.37
2022-11-22T05:21:14.483Z,30.83
2022-11-22T05:23:54.695Z,31.20
2022-11-22T05:26:34.438Z,29.87
2022-11-22T05:29:08.100Z,28.43
2022-11-22T05:31:39.979Z,27.87
2022-11-22T05:34:11.235Z,27.97
2022-11-22T05:36:42.545Z,40.73
2022-11-22T05:39:13.806Z,26.33
2022-11-22T05:41:55.767Z,29.73
2022-11-22T05:44:27.288Z,23.97
2022-11-22T05:46:58.524Z,26.27
2022-11-22T05:49:30.054Z,30.37
2022-11-22T05:52:02.832Z,26.67
2022-11-22T05:54:34.154Z,31.90
2022-11-22T05:57:06.320Z,32.23
2022-11-22T05:59:42.568Z,26.63
2022-11-22T06:02:15.356Z,29.90
2022-11-22T06:04:46.685Z,28.87
2022-11-22T06:07:18.100Z,28.83
2022-11-22T06:09:49.383Z,30.17
2022-11-22T06:12:20.628Z,30.07
2022-11-22T06:14:51.909Z,28.17
2022-11-22T06:17:23.313Z,33.27
2022-11-22T06:19:54.568Z,28.83
2022-11-22T06:22:26.331Z,28.37
2022-11-22T06:24:57.624Z,31.43
2022-11-22T06:27:28.870Z,29.73
2022-11-22T06:30:00.152Z,30.50
2022-11-22T06:32:34.984Z,29.20
2022-11-22T06:35:06.641Z,28.60
2022-11-22T06:37:37.888Z,24.60
2022-11-22T06:40:11.621Z,25.10
2022-11-22T06:42:42.889Z,31.90
2022-11-22T06:45:14.168Z,27.70
2022-11-22T06:47:45.424Z,25.00
2022-11-22T06:50:21.587Z,23.80
2022-11-22T06:52:53.481Z,22.00
2022-11-22T06:55:48.952Z,24.60
2022-11-22T06:58:15.985Z,27.07
2022-11-22T07:00:47.262Z,25.93
2022-11-22T07:03:18.555Z,23.70
2022-11-22T07:05:51.208Z,25.03
2022-11-22T07:08:23.698Z,24.80
2022-11-22T07:10:55.030Z,25.67
2022-11-22T07:13:26.999Z,27.60
2022-11-22T07:16:00.194Z,28.50
2022-11-22T07:18:32.546Z,30.30
2022-11-22T07:21:12.854Z,25.20
2022-11-22T07:23:46.811Z,22.30
2022-11-22T07:26:19.327Z,23.03
2022-11-22T07:28:50.653Z,25.20
2022-11-22T07:31:21.967Z,21.90
2022-11-22T07:33:56.300Z,26.17
2022-11-22T07:36:29.563Z,26.30
2022-11-22T07:39:02.679Z,22.83
2022-11-22T07:41:33.957Z,27.40
2022-11-22T07:44:05.284Z,24.50
2022-11-22T07:46:36.569Z,25.83
2022-11-22T07:49:13.789Z,25.97
2022-11-22T07:51:45.063Z,20.13
2022-11-22T07:54:16.340Z,25.60
2022-11-22T07:56:47.656Z,26.67
2022-11-22T07:59:19.036Z,29.40
2022-11-22T08:01:50.346Z,24.47
2022-11-22T08:04:21.665Z,22.07
2022-11-22T08:06:52.943Z,25.77
2022-11-22T08:09:24.208Z,25.77
2022-11-22T08:11:55.626Z,26.07
2022-11-22T08:14:27.179Z,28.83
2022-11-22T08:16:58.572Z,25.43
2022-11-22T08:19:31.155Z,30.27
2022-11-22T08:22:02.612Z,22.97
2022-11-22T08:24:33.945Z,24.63
2022-11-22T08:27:05.348Z,25.00
2022-11-22T08:29:36.716Z,24.77
2022-11-22T08:32:08.011Z,24.83
2022-11-22T08:34:44.137Z,26.97
2022-11-22T08:37:18.097Z,28.33
2022-11-22T08:39:49.331Z,22.03
2022-11-22T08:42:20.612Z,23.87
2022-11-22T08:44:51.858Z,25.97
2022-11-22T08:47:23.163Z,27.23
2022-11-22T08:49:54.425Z,25.07
2022-11-22T08:52:25.697Z,29.13
2022-11-22T08:54:56.977Z,26.43
2022-11-22T08:57:28.239Z,27.03
2022-11-22T08:59:59.885Z,21.67
2022-11-22T09:02:31.208Z,22.07
2022-11-22T09:05:02.685Z,21.17
2022-11-22T09:10:25.896Z,31.70
2022-11-22T09:12:57.513Z,22.93
2022-11-22T09:15:28.809Z,24.10
2022-11-22T09:18:02.046Z,24.53
2022-11-22T09:20:33.324Z,26.53
2022-11-22T09:23:04.770Z,27.00
2022-11-22T09:25:36.122Z,26.53
2022-11-22T09:28:07.473Z,26.90
2022-11-22T09:30:38.731Z,31.83
2022-11-22T09:33:10.195Z,31.70
2022-11-22T09:35:41.518Z,30.53
2022-11-22T09:38:12.760Z,25.83
2022-11-22T09:40:47.286Z,28.70
2022-11-22T09:43:36.807Z,26.87
2022-11-22T09:46:29.742Z,27.97
2022-11-22T09:49:25.692Z,21.70
2022-11-22T09:52:07.707Z,27.23
2022-11-22T09:54:48.195Z,25.47
2022-11-22T09:57:24.730Z,25.93
2022-11-22T10:00:04.338Z,24.60
2022-11-22T10:02:59.435Z,27.00
2022-11-22T10:05:52.959Z,24.70
2022-11-22T10:08:57.169Z,23.80
2022-11-22T10:11:39.741Z,30.20
2022-11-22T10:14:30.006Z,20.57
2022-11-22T10:17:08.141Z,23.80
2022-11-22T10:19:45.694Z,18.93
2022-11-22T10:22:16.994Z,22.07
2022-11-22T10:24:48.268Z,21.37
2022-11-22T10:27:19.611Z,23.07
2022-11-22T10:29:57.925Z,24.07
2022-11-22T10:32:39.242Z,25.17
2022-11-22T10:35:13.789Z,21.87
2022-11-22T10:38:01.712Z,26.47
2022-11-22T10:40:50.498Z,20.00
2022-11-22T10:43:33.926Z,21.37
2022-11-22T10:46:32.494Z,20.17
2022-11-22T10:49:18.877Z,23.53
2022-11-22T10:52:04.312Z,19.58
2022-11-22T10:54:52.665Z,23.33
2022-11-22T10:57:38.651Z,20.97
2022-11-22T11:00:21.516Z,21.70
2022-11-22T11:03:03.425Z,20.53
2022-11-22T11:09:36.115Z,22.00
2022-11-22T11:11:42.741Z,20.27
2022-11-22T11:14:26.516Z,19.37
2022-11-22T11:16:59.241Z,21.73
2022-11-22T11:19:37.543Z,23.60
2022-11-22T11:22:08.768Z,22.53
2022-11-22T11:24:40.711Z,19.90
2022-11-22T11:27:12.448Z,17.17
2022-11-22T11:29:50.620Z,24.33
2022-11-22T11:32:21.978Z,21.17
2022-11-22T11:35:04.051Z,24.43
2022-11-22T11:37:37.963Z,25.60
2022-11-22T11:40:32.788Z,20.37
2022-11-22T11:43:20.064Z,21.80
2022-11-22T11:45:51.849Z,23.83
2022-11-22T11:48:35.094Z,19.77
2022-11-22T11:51:37.009Z,19.37
2022-11-22T11:54:15.864Z,20.07
2022-11-22T11:56:49.196Z,21.13
2022-11-22T11:59:39.759Z,21.87
2022-11-22T12:02:15.238Z,22.00
2022-11-22T12:05:00.836Z,20.17
2022-11-22T12:07:35.215Z,22.10
2022-11-22T12:10:45.364Z,24.57
2022-11-22T12:13:30.220Z,18.50
2022-11-22T12:16:15.939Z,21.97
2022-11-22T12:18:58.812Z,22.77
2022-11-22T12:21:53.206Z,22.13
2022-11-22T12:25:09.454Z,22.87
2022-11-22T12:27:22.629Z,22.03
2022-11-22T12:29:53.952Z,21.37
2022-11-22T12:32:28.164Z,20.63
2022-11-22T12:35:05.066Z,21.83
2022-11-22T12:37:41.389Z,22.07
2022-11-22T12:42:51.827Z,21.30
2022-11-22T12:45:40.402Z,19.97
2022-11-22T12:48:36.901Z,19.00
2022-11-22T12:51:45.343Z,21.63
2022-11-22T12:54:22.339Z,19.73
2022-11-22T12:56:58.174Z,21.80
2022-11-22T12:59:38.940Z,21.92
2022-11-22T13:02:20.095Z,20.53
2022-11-22T13:04:58.988Z,23.20
2022-11-22T13:07:50.617Z,22.90
2022-11-22T13:10:38.517Z,23.00
2022-11-22T13:13:27.719Z,23.83
2022-11-22T13:16:02.723Z,21.30
2022-11-22T13:18:41.934Z,24.60
2022-11-22T13:21:30.728Z,21.53
2022-11-22T13:24:07.855Z,22.97
2022-11-22T13:26:44.638Z,19.43
2022-11-22T13:29:23.513Z,23.63
2022-11-22T13:32:07.225Z,22.07
2022-11-22T13:35:06.911Z,19.83
2022-11-22T13:37:50.643Z,23.90
2022-11-22T13:40:29.692Z,21.23
2022-11-22T13:43:16.698Z,25.77
2022-11-22T13:46:04.958Z,23.93
2022-11-22T13:48:38.937Z,22.93
2022-11-22T13:51:14.205Z,24.03
2022-11-22T13:53:47.884Z,23.13
2022-11-22T13:56:22.247Z,26.60
2022-11-22T13:59:14.189Z,25.07
2022-11-22T14:01:45.558Z,21.60
2022-11-22T14:04:16.932Z,22.00
2022-11-22T14:06:49.483Z,19.90
2022-11-22T14:09:44.047Z,24.13
2022-11-22T14:12:29.804Z,21.50
2022-11-22T14:15:23.035Z,26.53
2022-11-22T14:18:26.176Z,24.73
2022-11-22T14:21:04.408Z,25.17
2022-11-22T14:23:57.528Z,24.93
2022-11-22T14:26:50.866Z,22.50
2022-11-22T14:29:37.115Z,21.60
2022-11-22T14:32:15.993Z,22.92
2022-11-22T14:35:05.527Z,26.13
2022-11-22T14:37:56.684Z,25.27
2022-11-22T14:40:32.953Z,23.80
2022-11-22T14:45:55.173Z,24.10
2022-11-22T14:48:42.876Z,27.87
2022-11-22T14:51:29.251Z,30.73
2022-11-22T14:54:16.120Z,23.23
2022-11-22T14:56:48.305Z,24.60
2022-11-22T14:59:54.082Z,29.23
2022-11-22T15:02:44.903Z,28.60
2022-11-22T15:09:13.452Z,23.77
2022-11-22T15:09:13.832Z,26.10
2022-11-22T15:11:49.770Z,24.33
2022-11-22T15:58:18.421Z,27.03
2022-11-22T16:00:49.988Z,33.50
2022-11-22T16:03:38.886Z,28.13
2022-11-22T16:06:15.210Z,28.63
2022-11-22T16:11:33.851Z,30.53
2022-11-22T16:14:39.877Z,34.15
2022-11-22T16:17:25.294Z,29.43
2022-11-22T16:20:30.806Z,33.73
2022-11-22T16:23:11.860Z,33.77
2022-11-22T16:25:50.525Z,30.77
2022-11-22T16:28:27.780Z,26.80
2022-11-22T16:31:16.816Z,31.37
2022-11-22T16:33:48.451Z,31.50
2022-11-22T16:36:21.900Z,30.73
2022-11-22T16:38:53.221Z,34.63
2022-11-22T16:41:26.609Z,31.10
2022-11-22T16:44:03.903Z,29.87
2022-11-22T16:46:35.184Z,34.97
2022-11-22T16:49:32.945Z,33.77
2022-11-22T16:52:04.573Z,35.63
2022-11-22T16:54:35.852Z,29.50
2022-11-22T16:57:15.089Z,32.03
2022-11-22T16:59:46.450Z,34.37
2022-11-22T17:02:17.844Z,34.53
2022-11-22T17:04:49.351Z,31.77
2022-11-22T17:07:20.778Z,29.57
2022-11-22T17:09:53.025Z,34.17
2022-11-22T17:12:32.057Z,30.53
2022-11-22T17:15:05.275Z,30.80
2022-11-22T17:17:36.737Z,28.93
2022-11-22T17:20:08.606Z,34.60
2022-11-22T17:22:40.707Z,32.27
2022-11-22T17:25:13.667Z,34.43
2022-11-22T17:27:48.057Z,33.17
2022-11-22T17:30:22.806Z,30.50
2022-11-22T17:32:54.071Z,28.97
2022-11-22T17:35:25.956Z,32.40
2022-11-22T17:37:57.287Z,33.13
2022-11-22T17:40:28.579Z,30.67
2022-11-22T17:43:01.466Z,39.47
2022-11-22T17:45:32.812Z,31.47
2022-11-22T17:48:04.472Z,31.77
2022-11-22T17:50:35.888Z,30.03
2022-11-22T17:53:07.171Z,32.00
2022-11-22T17:56:08.520Z,31.13
2022-11-22T17:58:30.446Z,31.73
2022-11-22T18:01:09.775Z,30.73
2022-11-22T18:03:42.125Z,32.67
2022-11-22T18:06:14.930Z,32.63
2022-11-22T18:08:47.348Z,35.70
2022-11-22T18:11:18.883Z,30.70
2022-11-22T18:13:50.172Z,35.40
2022-11-22T18:16:27.827Z,31.30
2022-11-22T18:19:00.569Z,30.90
2022-11-22T18:21:33.193Z,31.57
2022-11-22T18:24:08.328Z,30.87
2022-11-22T18:26:40.983Z,28.17
2022-11-22T18:32:05.304Z,33.67
2022-11-22T18:34:36.749Z,32.93
2022-11-22T18:37:08.200Z,32.80
2022-11-22T18:39:40.489Z,30.77
2022-11-22T18:42:14.714Z,28.67
2022-11-22T18:44:46.007Z,30.10
2022-11-22T18:47:17.314Z,28.90
2022-11-22T18:49:48.581Z,29.17
2022-11-22T18:52:19.851Z,28.80
2022-11-22T18:54:51.512Z,34.57
2022-11-22T18:57:22.881Z,32.77
2022-11-22T18:59:54.319Z,36.93
2022-11-22T19:02:27.270Z,32.80
2022-11-22T19:04:58.577Z,34.03
2022-11-22T19:07:30.241Z,38.10
2022-11-22T19:10:02.292Z,34.63
2022-11-22T19:12:33.712Z,32.27
2022-11-22T19:15:06.279Z,36.33
2022-11-22T19:17:40.664Z,32.13
2022-11-22T19:20:32.059Z,31.97
2022-11-22T19:23:04.904Z,37.07
2022-11-22T19:25:36.205Z,31.40
2022-11-22T19:28:07.473Z,39.53
2022-11-22T19:30:42.926Z,35.43
2022-11-22T19:33:17.064Z,35.33
2022-11-22T19:35:58.268Z,34.73
2022-11-22T19:38:29.611Z,29.13
2022-11-22T19:41:01.031Z,36.43
2022-11-22T19:43:32.310Z,34.73
2022-11-22T19:46:04.720Z,31.47
2022-11-22T19:48:39.132Z,31.60
2022-11-22T19:51:15.267Z,37.13
2022-11-22T19:53:46.642Z,32.00
2022-11-22T19:56:19.536Z,40.50
2022-11-22T19:58:55.860Z,33.47
2022-11-22T20:01:29.753Z,34.22
2022-11-22T20:04:05.856Z,43.07
2022-11-22T20:06:37.343Z,37.17
2022-11-22T20:09:11.787Z,34.77
2022-11-22T20:11:44.269Z,37.40
2022-11-22T20:14:15.541Z,30.83
2022-11-22T20:16:46.924Z,31.03
2022-11-22T20:19:18.202Z,35.20
2022-11-22T20:21:49.544Z,34.57
2022-11-22T20:24:21.142Z,33.63
2022-11-22T20:26:52.442Z,31.27
2022-11-22T20:29:24.903Z,35.43
2022-11-22T20:31:56.725Z,31.60
2022-11-22T20:34:31.258Z,32.97
2022-11-22T20:37:03.352Z,38.30
2022-11-22T20:39:36.898Z,33.10
2022-11-22T20:42:33.040Z,31.83
2022-11-22T20:45:00.227Z,29.03
2022-11-22T20:47:31.664Z,31.90
2022-11-22T20:50:03.321Z,31.50
2022-11-22T20:52:34.705Z,35.23
2022-11-22T20:55:06.539Z,33.03
2022-11-22T20:57:38.384Z,34.70
2022-11-22T21:00:11.015Z,27.70
2022-11-22T21:02:42.314Z,33.73
2022-11-22T21:05:13.735Z,34.87
2022-11-22T21:07:45.076Z,31.13
2022-11-22T21:10:16.471Z,34.27
2022-11-22T21:12:47.744Z,31.07
2022-11-22T21:15:19.161Z,32.57
2022-11-22T21:18:17.174Z,32.63
2022-11-22T21:20:41.824Z,29.80
2022-11-22T21:23:13.074Z,26.93
2022-11-22T21:25:44.588Z,31.20
2022-11-22T21:28:16.266Z,34.70
2022-11-22T21:30:55.961Z,29.37
2022-11-22T21:33:29.953Z,31.17
2022-11-22T21:36:03.082Z,29.43
2022-11-22T21:38:35.389Z,29.53
2022-11-22T21:44:01.536Z,30.07
2022-11-22T21:46:33.463Z,27.47
2022-11-22T21:49:04.965Z,28.90
2022-11-22T21:51:36.278Z,26.70
2022-11-22T21:54:07.921Z,24.43
2022-11-22T21:56:39.321Z,31.47
2022-11-22T21:59:11.227Z,22.63
2022-11-22T22:01:42.543Z,25.40
2022-11-22T22:04:13.914Z,28.07
2022-11-22T22:06:46.377Z,22.63
2022-11-22T22:09:17.704Z,34.97
2022-11-22T22:11:48.980Z,22.57
2022-11-22T22:14:20.219Z,21.43
2022-11-22T22:16:51.497Z,31.10
2022-11-22T22:19:22.736Z,24.90
2022-11-22T22:21:53.995Z,20.43
2022-11-22T22:24:25.409Z,23.10
2022-11-22T22:26:56.784Z,22.80
2022-11-22T22:29:28.355Z,22.20
2022-11-22T22:31:59.905Z,22.40
2022-11-22T22:34:31.186Z,21.70
2022-11-22T22:37:02.728Z,23.57
2022-11-22T22:39:34.059Z,19.20
2022-11-22T22:42:05.440Z,21.40
2022-11-22T22:44:36.774Z,22.47
2022-11-22T22:47:08.044Z,20.00
2022-11-22T22:49:39.418Z,21.90
2022-11-22T22:52:10.677Z,17.77
2022-11-22T22:54:41.918Z,20.03
2022-11-22T22:57:13.177Z,21.67
2022-11-22T22:59:44.417Z,19.43
2022-11-22T23:02:15.805Z,18.63
2022-11-22T23:04:47.075Z,18.93
2022-11-22T23:07:18.397Z,18.30
2022-11-22T23:09:49.683Z,20.13
2022-11-22T23:12:21.064Z,16.60
2022-11-22T23:14:52.345Z,17.50
2022-11-22T23:17:24.545Z,18.27
2022-11-22T23:19:55.783Z,13.13
2022-11-22T23:22:27.081Z,16.07
2022-11-22T23:24:58.323Z,20.90
2022-11-22T23:27:29.575Z,14.77
2022-11-22T23:30:00.891Z,19.97
2022-11-22T23:32:32.294Z,17.77
2022-11-22T23:35:03.667Z,17.30
2022-11-22T23:37:34.933Z,19.27
2022-11-22T23:40:06.872Z,16.80
2022-11-22T23:42:38.165Z,14.10
2022-11-22T23:45:09.931Z,16.17
2022-11-22T23:47:41.201Z,13.60
2022-11-22T23:50:12.454Z,10.77
2022-11-22T23:52:43.819Z,15.90
2022-11-22T23:55:18.475Z,15.37
2022-11-22T23:57:50.554Z,16.37
